createdAt,value
2023-03-20T00:02:05.921Z,81.70
2023-03-20T00:04:32.983Z,82.14
2023-03-20T00:07:00.029Z,81.87
2023-03-20T00:09:27.276Z,81.43
2023-03-20T00:11:55.501Z,82.28
2023-03-20T00:14:24.480Z,82.12
2023-03-20T00:16:51.703Z,82.28
2023-03-20T00:19:23.410Z,82.27
2023-03-20T00:21:51.115Z,82.34
2023-03-20T00:24:18.192Z,82.04
2023-03-20T00:26:45.882Z,82.61
2023-03-20T00:29:26.859Z,83.21
2023-03-20T00:31:54.387Z,81.88
2023-03-20T00:34:23.733Z,82.24
2023-03-20T00:36:51.805Z,82.04
2023-03-20T00:39:18.970Z,82.07
2023-03-20T00:41:58.627Z,81.57
2023-03-20T00:44:39.007Z,81.93
2023-03-20T00:47:18.599Z,81.20
2023-03-20T00:49:46.134Z,81.38
2023-03-20T00:52:19.417Z,81.69
2023-03-20T00:54:46.732Z,81.59
2023-03-20T00:57:18.238Z,82.00
2023-03-20T01:00:21.424Z,82.62
2023-03-20T01:02:48.406Z,82.37
2023-03-20T01:05:15.364Z,82.34
2023-03-20T01:07:42.500Z,82.16
2023-03-20T01:10:11.574Z,81.95
2023-03-20T01:12:40.869Z,82.92
2023-03-20T01:15:22.282Z,82.56
2023-03-20T01:17:49.650Z,82.64
2023-03-20T01:20:19.352Z,82.19
2023-03-20T01:22:46.583Z,82.62
2023-03-20T01:25:13.780Z,82.76
2023-03-20T01:27:40.809Z,82.51
2023-03-20T01:30:30.088Z,82.89
2023-03-20T01:32:58.960Z,82.79
2023-03-20T01:35:27.554Z,82.84
2023-03-20T01:37:56.364Z,82.81
2023-03-20T01:40:54.243Z,82.88
2023-03-20T01:43:22.371Z,82.67
2023-03-20T01:46:17.893Z,83.22
2023-03-20T01:48:51.180Z,83.70
2023-03-20T01:51:23.324Z,83.76
2023-03-20T01:53:58.446Z,84.04
2023-03-20T01:56:25.739Z,84.35
2023-03-20T01:59:33.172Z,84.77
2023-03-20T02:02:00.434Z,83.79
2023-03-20T02:04:34.413Z,83.77
2023-03-20T02:07:07.428Z,84.01
2023-03-20T02:09:41.223Z,84.44
2023-03-20T02:12:13.326Z,84.22
2023-03-20T02:14:40.725Z,84.56
2023-03-20T02:17:42.268Z,83.97
2023-03-20T02:20:12.749Z,84.94
2023-03-20T02:23:14.450Z,85.15
2023-03-20T02:26:05.142Z,85.18
2023-03-20T02:28:54.134Z,85.01
2023-03-20T02:31:54.459Z,84.64
2023-03-20T02:34:50.835Z,84.74
2023-03-20T02:37:36.648Z,84.79
2023-03-20T02:40:12.604Z,84.99
2023-03-20T02:42:44.852Z,85.11
2023-03-20T02:45:19.928Z,85.10
2023-03-20T02:47:54.804Z,85.30
2023-03-20T02:51:10.040Z,84.57
2023-03-20T02:53:53.163Z,84.18
2023-03-20T02:56:48.361Z,84.65
2023-03-20T02:59:34.698Z,84.62
2023-03-20T03:02:06.027Z,84.02
2023-03-20T03:04:36.328Z,84.06
2023-03-20T03:07:03.913Z,83.83
2023-03-20T03:09:33.621Z,84.30
2023-03-20T03:12:07.753Z,84.53
2023-03-20T03:14:54.289Z,84.04
2023-03-20T03:17:22.331Z,84.25
2023-03-20T03:19:55.971Z,84.64
2023-03-20T03:22:24.391Z,84.12
2023-03-20T03:24:52.670Z,84.30
2023-03-20T03:27:29.169Z,84.06
2023-03-20T03:30:02.128Z,84.01
2023-03-20T03:32:33.766Z,84.09
2023-03-20T03:35:01.330Z,84.68
2023-03-20T03:37:34.375Z,83.90
2023-03-20T03:40:35.519Z,84.23
2023-03-20T03:43:07.332Z,83.97
2023-03-20T03:45:38.524Z,84.18
2023-03-20T03:48:17.248Z,83.79
2023-03-20T03:50:49.324Z,83.82
2023-03-20T03:53:22.873Z,83.25
2023-03-20T03:55:55.015Z,83.65
2023-03-20T03:58:30.508Z,83.44
2023-03-20T04:00:58.772Z,83.16
2023-03-20T04:03:29.325Z,83.17
2023-03-20T04:05:56.359Z,83.29
2023-03-20T04:08:23.320Z,83.57
2023-03-20T04:10:50.361Z,83.75
2023-03-20T04:13:17.387Z,83.94
2023-03-20T04:15:44.552Z,82.79
2023-03-20T04:18:16.697Z,83.20
2023-03-20T04:20:47.988Z,82.79
2023-03-20T04:23:16.768Z,83.06
2023-03-20T04:25:43.759Z,82.92
2023-03-20T04:28:11.987Z,82.34
2023-03-20T04:31:02.422Z,82.13
2023-03-20T04:33:48.077Z,82.09
2023-03-20T04:36:42.398Z,82.76
2023-03-20T04:39:11.956Z,82.55
2023-03-20T04:41:39.805Z,82.92
2023-03-20T04:44:07.288Z,82.77
2023-03-20T04:46:35.427Z,82.01
2023-03-20T04:49:06.450Z,81.94
2023-03-20T04:51:33.408Z,81.97
2023-03-20T04:54:00.468Z,82.05
2023-03-20T04:56:27.613Z,82.63
2023-03-20T04:59:07.138Z,81.83
2023-03-20T05:01:34.112Z,81.58
2023-03-20T05:04:01.664Z,81.41
2023-03-20T05:06:32.413Z,82.09
2023-03-20T05:09:00.893Z,82.19
2023-03-20T05:11:30.184Z,81.71
2023-03-20T05:14:06.836Z,82.01
2023-03-20T05:17:12.316Z,82.02
2023-03-20T05:20:00.130Z,81.78
2023-03-20T05:22:38.798Z,82.02
2023-03-20T05:25:11.534Z,82.09
2023-03-20T05:28:03.425Z,82.10
2023-03-20T05:30:48.087Z,82.31
2023-03-20T05:33:41.545Z,82.28
2023-03-20T05:36:27.584Z,81.81
2023-03-20T05:39:04.080Z,81.77
2023-03-20T05:41:51.867Z,81.41
2023-03-20T05:44:37.547Z,81.71
2023-03-20T05:47:26.038Z,81.39
2023-03-20T05:50:04.434Z,81.24
2023-03-20T05:53:01.067Z,81.42
2023-03-20T05:55:39.137Z,80.97
2023-03-20T05:58:24.543Z,81.52
2023-03-20T06:01:10.149Z,81.76
2023-03-20T06:03:57.361Z,81.52
2023-03-20T06:06:44.437Z,81.82
2023-03-20T06:09:11.883Z,81.25
2023-03-20T06:11:39.123Z,81.22
2023-03-20T06:14:07.218Z,80.38
2023-03-20T06:16:38.676Z,80.51
2023-03-20T06:19:05.692Z,80.67
2023-03-20T06:21:33.066Z,80.24
2023-03-20T06:24:00.698Z,80.63
2023-03-20T06:26:28.724Z,80.09
2023-03-20T06:29:03.507Z,80.45
2023-03-20T06:31:31.959Z,80.42
2023-03-20T06:34:00.896Z,80.02
2023-03-20T06:36:28.122Z,80.31
2023-03-20T06:39:01.697Z,80.82
2023-03-20T06:41:34.715Z,80.30
2023-03-20T06:44:06.688Z,80.40
2023-03-20T06:46:54.094Z,81.05
2023-03-20T06:49:21.527Z,81.08
2023-03-20T06:51:48.778Z,81.40
2023-03-20T06:54:23.185Z,81.33
2023-03-20T06:56:51.497Z,81.27
2023-03-20T06:59:18.476Z,81.03
2023-03-20T07:01:45.656Z,81.43
2023-03-20T07:04:14.725Z,80.96
2023-03-20T07:06:48.633Z,80.94
2023-03-20T07:09:17.610Z,80.67
2023-03-20T07:11:45.184Z,80.82
2023-03-20T07:14:15.440Z,81.51
2023-03-20T07:16:56.490Z,80.80
2023-03-20T07:19:23.549Z,80.69
2023-03-20T07:21:57.596Z,81.03
2023-03-20T07:24:24.890Z,80.61
2023-03-20T07:26:51.879Z,80.73
2023-03-20T07:29:19.936Z,79.97
2023-03-20T07:31:47.190Z,79.72
2023-03-20T07:34:22.600Z,80.02
2023-03-20T07:36:50.360Z,79.59
2023-03-20T07:39:20.186Z,79.13
2023-03-20T07:41:57.343Z,78.83
2023-03-20T07:44:43.425Z,78.93
2023-03-20T07:47:11.824Z,78.86
2023-03-20T07:49:38.906Z,78.51
2023-03-20T07:52:07.972Z,78.53
2023-03-20T07:54:38.086Z,78.32
2023-03-20T07:57:05.545Z,78.43
2023-03-20T07:59:32.808Z,78.62
2023-03-20T08:01:59.850Z,78.31
2023-03-20T08:04:26.848Z,77.73
2023-03-20T08:06:54.034Z,77.92
2023-03-20T08:09:21.134Z,77.36
2023-03-20T08:11:48.154Z,76.98
2023-03-20T08:14:15.427Z,77.21
2023-03-20T08:16:42.577Z,77.13
2023-03-20T08:19:12.592Z,76.99
2023-03-20T08:21:40.425Z,76.94
2023-03-20T08:24:08.720Z,76.76
2023-03-20T08:26:36.394Z,77.01
2023-03-20T08:29:03.369Z,76.64
2023-03-20T08:31:31.677Z,76.94
2023-03-20T08:33:58.809Z,76.31
2023-03-20T08:36:25.892Z,76.08
2023-03-20T08:38:52.937Z,76.06
2023-03-20T08:41:20.417Z,75.83
2023-03-20T08:43:48.079Z,76.04
2023-03-20T08:46:15.378Z,75.57
2023-03-20T08:48:42.521Z,75.44
2023-03-20T08:51:10.082Z,74.86
2023-03-20T08:53:37.108Z,75.02
2023-03-20T08:56:04.291Z,74.54
2023-03-20T08:58:31.286Z,74.24
2023-03-20T09:01:03.044Z,74.57
2023-03-20T09:03:30.271Z,74.47
2023-03-20T09:05:57.405Z,74.22
2023-03-20T09:08:24.925Z,73.67
2023-03-20T09:10:53.405Z,73.79
2023-03-20T09:13:27.819Z,73.31
2023-03-20T09:15:55.668Z,73.19
2023-03-20T09:18:22.750Z,73.25
2023-03-20T09:20:49.842Z,72.90
2023-03-20T09:23:16.998Z,72.56
2023-03-20T09:25:44.077Z,72.53
2023-03-20T09:28:11.317Z,72.47
2023-03-20T09:30:39.569Z,72.31
2023-03-20T09:33:06.655Z,72.22
2023-03-20T09:35:33.831Z,71.91
2023-03-20T09:38:01.080Z,71.69
2023-03-20T09:40:31.246Z,71.34
2023-03-20T09:43:36.760Z,70.71
2023-03-20T09:46:31.371Z,70.44
2023-03-20T09:49:13.168Z,70.36
2023-03-20T09:52:00.680Z,70.16
2023-03-20T09:54:28.505Z,69.91
2023-03-20T09:56:56.860Z,69.76
2023-03-20T09:59:25.251Z,69.51
2023-03-20T10:01:54.318Z,68.56
2023-03-20T10:04:21.594Z,69.02
2023-03-20T10:06:48.599Z,68.45
2023-03-20T10:09:23.915Z,67.96
2023-03-20T10:12:14.684Z,67.84
2023-03-20T10:15:29.244Z,67.39
2023-03-20T10:18:25.644Z,66.97
2023-03-20T10:21:05.151Z,66.51
2023-03-20T10:23:36.118Z,66.19
2023-03-20T10:26:13.549Z,66.04
2023-03-20T10:28:50.929Z,65.72
2023-03-20T10:31:45.797Z,65.79
2023-03-20T10:34:45.069Z,65.80
2023-03-20T10:37:39.947Z,65.24
2023-03-20T10:40:27.561Z,65.25
2023-03-20T10:42:57.248Z,65.43
2023-03-20T10:45:44.677Z,65.05
2023-03-20T10:48:21.153Z,65.30
2023-03-20T10:50:59.814Z,65.06
2023-03-20T10:53:41.629Z,64.74
2023-03-20T10:56:16.802Z,64.93
2023-03-20T10:58:45.433Z,65.25
2023-03-20T11:01:12.468Z,64.86
2023-03-20T11:03:41.428Z,64.61
2023-03-20T11:06:27.893Z,64.48
2023-03-20T11:08:55.088Z,64.41
2023-03-20T11:11:26.572Z,64.68
2023-03-20T11:13:54.038Z,64.39
2023-03-20T11:16:33.094Z,64.73
2023-03-20T11:19:08.571Z,65.20
2023-03-20T11:21:39.118Z,65.22
2023-03-20T11:24:06.756Z,65.19
2023-03-20T11:26:35.889Z,65.40
2023-03-20T11:29:02.920Z,65.43
2023-03-20T11:31:34.614Z,65.69
2023-03-20T11:34:04.591Z,65.72
2023-03-20T11:36:33.304Z,65.98
2023-03-20T11:39:06.429Z,66.22
2023-03-20T11:41:33.543Z,66.47
2023-03-20T11:44:00.628Z,66.54
2023-03-20T11:46:27.720Z,66.51
2023-03-20T11:49:16.122Z,66.99
2023-03-20T11:51:43.064Z,67.33
2023-03-20T11:54:20.816Z,67.44
2023-03-20T11:56:53.954Z,67.39
2023-03-20T11:59:21.126Z,67.43
2023-03-20T12:01:52.746Z,67.69
2023-03-20T12:04:42.886Z,67.69
2023-03-20T12:07:33.206Z,67.37
2023-03-20T12:10:07.685Z,67.69
2023-03-20T12:12:34.564Z,67.62
2023-03-20T12:15:13.445Z,68.02
2023-03-20T12:18:01.524Z,67.58
2023-03-20T12:20:53.184Z,67.27
2023-03-20T12:23:34.256Z,67.19
2023-03-20T12:26:15.105Z,67.12
2023-03-20T12:29:17.586Z,67.47
2023-03-20T12:31:48.123Z,67.43
2023-03-20T12:34:42.411Z,67.72
2023-03-20T12:37:13.384Z,67.58
2023-03-20T12:39:46.533Z,67.45
2023-03-20T12:42:51.404Z,67.30
2023-03-20T12:45:22.068Z,67.50
2023-03-20T12:48:19.907Z,67.63
2023-03-20T12:51:13.556Z,67.77
2023-03-20T12:53:49.424Z,67.62
2023-03-20T12:56:46.817Z,67.85
2023-03-20T12:59:28.629Z,68.03
2023-03-20T13:02:24.470Z,68.49
2023-03-20T13:04:59.962Z,68.43
2023-03-20T13:07:42.863Z,68.11
2023-03-20T13:10:35.346Z,68.56
2023-03-20T13:13:38.290Z,68.47
2023-03-20T13:16:17.991Z,68.34
2023-03-20T13:19:26.345Z,68.70
2023-03-20T13:22:01.773Z,68.49
2023-03-20T13:24:43.162Z,68.66
2023-03-20T13:27:28.806Z,68.63
2023-03-20T13:29:55.685Z,68.64
2023-03-20T13:32:38.562Z,68.81
2023-03-20T13:35:20.739Z,69.16
2023-03-20T13:38:01.574Z,69.37
2023-03-20T13:40:38.374Z,69.04
2023-03-20T13:43:25.528Z,69.51
2023-03-20T13:46:02.559Z,69.37
2023-03-20T13:48:29.439Z,69.49
2023-03-20T13:51:18.454Z,69.43
2023-03-20T13:53:57.937Z,69.53
2023-03-20T13:56:37.708Z,69.47
2023-03-20T13:59:34.309Z,69.94
2023-03-20T14:02:10.688Z,70.03
2023-03-20T14:04:37.968Z,70.00
2023-03-20T14:07:31.904Z,69.78
2023-03-20T14:09:59.395Z,69.87
2023-03-20T14:12:26.717Z,69.86
2023-03-20T14:14:57.019Z,70.31
2023-03-20T14:17:28.576Z,70.41
2023-03-20T14:19:56.164Z,70.21
2023-03-20T14:22:27.735Z,70.37
2023-03-20T14:24:58.475Z,70.73
2023-03-20T14:27:45.075Z,70.82
2023-03-20T14:30:45.917Z,71.67
2023-03-20T14:33:16.301Z,71.85
2023-03-20T14:35:50.922Z,72.25
2023-03-20T14:38:20.992Z,72.31
2023-03-20T14:41:06.611Z,72.14
2023-03-20T14:43:52.283Z,72.42
2023-03-20T14:46:56.392Z,72.73
2023-03-20T14:49:27.754Z,72.67
2023-03-20T14:51:59.598Z,72.76
2023-03-20T14:54:28.927Z,72.93
2023-03-20T14:56:56.116Z,72.97
2023-03-20T14:59:23.851Z,73.09
2023-03-20T15:01:57.849Z,73.84
2023-03-20T15:04:41.249Z,74.07
2023-03-20T15:07:25.860Z,74.24
2023-03-20T15:09:55.682Z,74.32
2023-03-20T15:12:27.631Z,74.70
2023-03-20T15:14:59.244Z,74.69
2023-03-20T15:17:28.499Z,74.54
2023-03-20T15:20:22.234Z,74.79
2023-03-20T15:22:52.781Z,74.87
2023-03-20T15:25:20.885Z,74.93
2023-03-20T15:27:47.878Z,75.16
2023-03-20T15:30:16.558Z,75.15
2023-03-20T15:32:43.939Z,75.58
2023-03-20T15:35:19.264Z,75.36
2023-03-20T15:37:47.140Z,75.56
2023-03-20T15:40:34.420Z,76.06
2023-03-20T15:43:19.292Z,76.34
2023-03-20T15:45:46.326Z,76.24
2023-03-20T15:48:21.658Z,76.18
2023-03-20T15:50:53.915Z,76.33
2023-03-20T15:53:30.955Z,76.99
2023-03-20T15:56:17.630Z,76.81
2023-03-20T15:58:45.000Z,76.79
2023-03-20T16:01:21.017Z,76.59
2023-03-20T16:03:48.204Z,76.91
2023-03-20T16:06:19.176Z,76.87
2023-03-20T16:08:46.978Z,76.93
2023-03-20T16:11:15.954Z,77.14
2023-03-20T16:13:47.192Z,77.46
2023-03-20T16:16:22.036Z,77.76
2023-03-20T16:18:49.529Z,77.61
2023-03-20T16:21:23.468Z,77.60
2023-03-20T16:23:52.638Z,78.10
2023-03-20T16:26:21.378Z,77.79
2023-03-20T16:28:55.492Z,77.49
2023-03-20T16:31:26.105Z,77.96
2023-03-20T16:33:53.158Z,78.18
2023-03-20T16:36:22.746Z,78.00
2023-03-20T16:39:10.033Z,78.50
2023-03-20T16:41:40.601Z,78.20
2023-03-20T16:44:12.356Z,78.27
2023-03-20T16:46:54.611Z,78.27
2023-03-20T16:49:44.570Z,78.60
2023-03-20T16:52:13.105Z,78.80
2023-03-20T16:54:40.261Z,78.64
2023-03-20T16:57:14.733Z,79.10
2023-03-20T16:59:41.792Z,79.43
2023-03-20T17:02:38.335Z,79.27
2023-03-20T17:05:08.020Z,79.48
2023-03-20T17:07:35.090Z,79.63
2023-03-20T17:10:24.208Z,79.35
2023-03-20T17:12:55.056Z,79.57
2023-03-20T17:15:23.595Z,79.67
2023-03-20T17:17:50.906Z,79.78
2023-03-20T17:20:22.968Z,80.06
2023-03-20T17:22:49.997Z,79.90
2023-03-20T17:25:17.012Z,80.23
2023-03-20T17:27:44.072Z,80.47
2023-03-20T17:30:14.515Z,80.65
2023-03-20T17:32:41.436Z,80.45
2023-03-20T17:35:08.594Z,80.25
2023-03-20T17:37:35.525Z,80.73
2023-03-20T17:40:02.458Z,80.93
2023-03-20T17:42:31.581Z,80.24
2023-03-20T17:44:59.221Z,80.38
2023-03-20T17:47:26.977Z,80.95
2023-03-20T17:49:54.813Z,80.50
2023-03-20T17:52:26.515Z,80.48
2023-03-20T17:54:53.571Z,80.92
2023-03-20T17:57:27.412Z,80.66
2023-03-20T17:59:54.375Z,80.87
2023-03-20T18:02:21.354Z,81.21
2023-03-20T18:04:48.619Z,81.05
2023-03-20T18:07:15.896Z,80.98
2023-03-20T18:09:43.135Z,80.84
2023-03-20T18:12:15.598Z,80.53
2023-03-20T18:14:43.701Z,80.46
2023-03-20T18:17:13.929Z,80.95
2023-03-20T18:19:40.949Z,80.88
2023-03-20T18:22:08.042Z,80.96
2023-03-20T18:24:35.435Z,81.55
2023-03-20T18:27:02.621Z,81.55
2023-03-20T18:29:29.601Z,81.59
2023-03-20T18:31:56.729Z,81.74
2023-03-20T18:34:23.764Z,81.15
2023-03-20T18:36:51.239Z,81.83
2023-03-20T18:39:22.635Z,81.78
2023-03-20T18:41:49.750Z,81.80
2023-03-20T18:44:16.759Z,81.61
2023-03-20T18:46:43.753Z,81.75
2023-03-20T18:49:14.643Z,81.72
2023-03-20T18:51:41.623Z,82.05
2023-03-20T18:54:08.879Z,81.88
2023-03-20T18:56:37.754Z,81.45
2023-03-20T18:59:09.532Z,81.58
2023-03-20T19:01:36.560Z,81.44
2023-03-20T19:04:03.782Z,81.63
2023-03-20T19:06:32.318Z,81.63
2023-03-20T19:08:59.629Z,81.63
2023-03-20T19:11:27.057Z,81.83
2023-03-20T19:13:54.344Z,82.13
2023-03-20T19:16:25.209Z,82.11
2023-03-20T19:18:53.584Z,81.88
2023-03-20T19:21:26.010Z,81.69
2023-03-20T19:24:04.782Z,82.07
2023-03-20T19:26:32.494Z,82.02
2023-03-20T19:29:01.020Z,82.19
2023-03-20T19:31:28.470Z,82.11
2023-03-20T19:33:56.851Z,82.21
2023-03-20T19:36:27.783Z,82.30
2023-03-20T19:38:55.829Z,82.09
2023-03-20T19:41:22.813Z,82.06
2023-03-20T19:43:53.411Z,82.13
2023-03-20T19:46:38.733Z,81.97
2023-03-20T19:49:07.105Z,82.08
2023-03-20T19:51:34.014Z,82.07
2023-03-20T19:54:00.959Z,82.13
2023-03-20T19:56:27.869Z,82.32
2023-03-20T19:58:54.998Z,82.61
2023-03-20T20:01:24.186Z,82.80
2023-03-20T20:03:53.708Z,83.40
2023-03-20T20:06:22.358Z,83.15
2023-03-20T20:08:51.356Z,83.22
2023-03-20T20:11:19.049Z,83.71
2023-03-20T20:14:07.114Z,83.46
2023-03-20T20:16:35.702Z,83.12
2023-03-20T20:19:02.938Z,83.65
2023-03-20T20:24:17.005Z,83.00
2023-03-20T20:26:54.189Z,83.15
2023-03-20T20:29:24.843Z,83.30
2023-03-20T20:31:51.862Z,83.67
2023-03-20T20:39:53.804Z,83.41
2023-03-20T20:42:20.788Z,82.95
2023-03-20T20:44:47.863Z,82.91
2023-03-20T20:47:15.361Z,83.06
2023-03-20T20:49:42.478Z,83.05
2023-03-20T20:52:09.326Z,83.17
2023-03-20T20:54:36.344Z,82.92
2023-03-20T20:57:03.481Z,82.81
2023-03-20T20:59:30.587Z,83.23
2023-03-20T21:01:57.648Z,83.36
2023-03-20T21:04:24.754Z,83.16
2023-03-20T21:07:09.400Z,83.17
2023-03-20T21:09:37.566Z,83.48
2023-03-20T21:12:04.781Z,83.25
2023-03-20T21:14:31.776Z,83.66
2023-03-20T21:17:01.614Z,83.64
2023-03-20T21:19:36.030Z,83.49
2023-03-20T21:22:03.668Z,83.40
2023-03-20T21:24:33.865Z,83.70
2023-03-20T21:27:06.898Z,83.27
2023-03-20T21:29:34.170Z,83.62
2023-03-20T21:32:01.391Z,83.37
2023-03-20T21:34:29.253Z,83.94
2023-03-20T21:36:57.887Z,83.98
2023-03-20T21:39:27.642Z,83.61
2023-03-20T21:41:54.814Z,83.92
2023-03-20T21:45:01.089Z,84.13
2023-03-20T21:48:04.008Z,84.04
2023-03-20T21:53:20.184Z,83.96
2023-03-20T21:56:37.289Z,83.95
2023-03-20T22:01:53.916Z,84.16
2023-03-20T22:05:00.864Z,83.97
2023-03-20T22:18:28.804Z,84.95
2023-03-20T22:21:22.475Z,85.06
2023-03-20T22:27:13.059Z,84.75
2023-03-20T22:32:40.178Z,84.73
2023-03-20T22:38:21.873Z,84.84
2023-03-20T22:40:57.566Z,85.14
2023-03-20T22:43:57.182Z,84.94
2023-03-20T22:45:57.516Z,84.67
2023-03-20T22:48:30.450Z,84.75
2023-03-20T22:50:57.394Z,85.02
2023-03-20T22:53:24.317Z,85.16
2023-03-20T22:55:52.406Z,85.53
2023-03-20T22:58:19.391Z,85.36
2023-03-20T23:00:46.569Z,85.74
2023-03-20T23:03:22.748Z,85.56
2023-03-20T23:05:56.968Z,85.67
2023-03-20T23:08:24.791Z,86.07
2023-03-20T23:10:52.020Z,86.09
2023-03-20T23:13:20.385Z,86.20
2023-03-20T23:15:47.543Z,86.27
2023-03-20T23:18:14.947Z,85.88
2023-03-20T23:20:41.871Z,86.19
2023-03-20T23:23:10.262Z,86.30
2023-03-20T23:25:39.753Z,86.13
2023-03-20T23:28:08.578Z,85.93
2023-03-20T23:30:46.558Z,86.33
2023-03-20T23:33:16.679Z,86.03
2023-03-20T23:35:43.778Z,85.83
2023-03-20T23:38:10.852Z,86.05
2023-03-20T23:40:38.020Z,86.38
2023-03-20T23:43:05.048Z,86.48
2023-03-20T23:45:32.258Z,86.36
2023-03-20T23:47:59.178Z,86.48
2023-03-20T23:53:20.221Z,86.59
2023-03-20T23:55:52.098Z,87.12
2023-03-20T23:58:19.171Z,86.86
